sensor_id;sensor_type;location;lat;lon;timestamp;P1;durP1;ratioP1;P2;durP2;ratioP2
82727;SDS011;72459;50.110;8.750;2024-01-30T00:00:39;23.27;;;12.73;;
82727;SDS011;72459;50.110;8.750;2024-01-30T00:03:04;24.13;;;13.03;;
82727;SDS011;72459;50.110;8.750;2024-01-30T00:05:29;22.08;;;12.45;;
82727;SDS011;72459;50.110;8.750;2024-01-30T00:07:55;22.97;;;13.00;;
82727;SDS011;72459;50.110;8.750;2024-01-30T00:10:20;18.77;;;12.03;;
82727;SDS011;72459;50.110;8.750;2024-01-30T00:12:46;18.97;;;11.73;;
82727;SDS011;72459;50.110;8.750;2024-01-30T00:15:11;20.70;;;11.98;;
82727;SDS011;72459;50.110;8.750;2024-01-30T00:17:36;19.90;;;10.25;;
82727;SDS011;72459;50.110;8.750;2024-01-30T00:20:02;19.67;;;11.75;;
82727;SDS011;72459;50.110;8.750;2024-01-30T00:22:30;19.75;;;11.20;;
82727;SDS011;72459;50.110;8.750;2024-01-30T00:24:56;18.38;;;10.85;;
82727;SDS011;72459;50.110;8.750;2024-01-30T00:27:22;21.13;;;12.13;;
82727;SDS011;72459;50.110;8.750;2024-01-30T00:29:47;21.73;;;11.83;;
82727;SDS011;72459;50.110;8.750;2024-01-30T00:32:12;17.73;;;11.80;;
82727;SDS011;72459;50.110;8.750;2024-01-30T00:34:38;17.25;;;11.10;;
82727;SDS011;72459;50.110;8.750;2024-01-30T00:37:03;19.50;;;11.27;;
82727;SDS011;72459;50.110;8.750;2024-01-30T00:39:29;19.73;;;11.13;;
82727;SDS011;72459;50.110;8.750;2024-01-30T00:41:54;20.02;;;10.93;;
82727;SDS011;72459;50.110;8.750;2024-01-30T00:44:19;20.23;;;11.07;;
82727;SDS011;72459;50.110;8.750;2024-01-30T00:46:45;20.80;;;10.83;;
82727;SDS011;72459;50.110;8.750;2024-01-30T00:49:10;17.05;;;10.95;;
82727;SDS011;72459;50.110;8.750;2024-01-30T00:51:36;15.77;;;10.55;;
82727;SDS011;72459;50.110;8.750;2024-01-30T00:54:01;20.83;;;11.23;;
82727;SDS011;72459;50.110;8.750;2024-01-30T00:56:27;19.38;;;10.70;;
82727;SDS011;72459;50.110;8.750;2024-01-30T00:58:53;16.15;;;9.95;;
82727;SDS011;72459;50.110;8.750;2024-01-30T01:01:18;17.42;;;10.68;;
82727;SDS011;72459;50.110;8.750;2024-01-30T01:03:44;16.35;;;9.75;;
82727;SDS011;72459;50.110;8.750;2024-01-30T01:06:09;16.92;;;9.38;;
82727;SDS011;72459;50.110;8.750;2024-01-30T01:08:35;17.33;;;10.27;;
82727;SDS011;72459;50.110;8.750;2024-01-30T01:11:01;18.00;;;9.55;;
82727;SDS011;72459;50.110;8.750;2024-01-30T01:13:26;15.07;;;9.50;;
82727;SDS011;72459;50.110;8.750;2024-01-30T01:15:51;16.00;;;9.77;;
82727;SDS011;72459;50.110;8.750;2024-01-30T01:18:17;13.77;;;8.63;;
82727;SDS011;72459;50.110;8.750;2024-01-30T01:20:42;16.80;;;9.20;;
82727;SDS011;72459;50.110;8.750;2024-01-30T01:23:07;14.07;;;9.27;;
82727;SDS011;72459;50.110;8.750;2024-01-30T01:25:33;17.55;;;9.35;;
82727;SDS011;72459;50.110;8.750;2024-01-30T01:27:58;14.13;;;7.67;;
82727;SDS011;72459;50.110;8.750;2024-01-30T01:30:26;14.80;;;9.30;;
82727;SDS011;72459;50.110;8.750;2024-01-30T01:32:51;15.20;;;9.40;;
82727;SDS011;72459;50.110;8.750;2024-01-30T01:35:23;18.08;;;9.23;;
82727;SDS011;72459;50.110;8.750;2024-01-30T01:37:50;13.43;;;8.43;;
82727;SDS011;72459;50.110;8.750;2024-01-30T01:40:24;18.13;;;9.35;;
82727;SDS011;72459;50.110;8.750;2024-01-30T01:42:51;18.75;;;10.45;;
82727;SDS011;72459;50.110;8.750;2024-01-30T01:45:18;13.95;;;9.00;;
82727;SDS011;72459;50.110;8.750;2024-01-30T01:47:43;14.68;;;9.40;;
82727;SDS011;72459;50.110;8.750;2024-01-30T01:50:11;16.52;;;9.57;;
82727;SDS011;72459;50.110;8.750;2024-01-30T01:52:38;17.85;;;9.85;;
82727;SDS011;72459;50.110;8.750;2024-01-30T01:55:06;18.33;;;9.45;;
82727;SDS011;72459;50.110;8.750;2024-01-30T01:57:33;16.30;;;9.45;;
82727;SDS011;72459;50.110;8.750;2024-01-30T01:59:58;16.55;;;9.43;;
82727;SDS011;72459;50.110;8.750;2024-01-30T02:02:25;15.57;;;9.38;;
82727;SDS011;72459;50.110;8.750;2024-01-30T02:04:55;14.95;;;9.52;;
82727;SDS011;72459;50.110;8.750;2024-01-30T02:07:22;16.02;;;9.70;;
82727;SDS011;72459;50.110;8.750;2024-01-30T02:09:47;14.38;;;9.45;;
82727;SDS011;72459;50.110;8.750;2024-01-30T02:12:12;15.48;;;9.52;;
82727;SDS011;72459;50.110;8.750;2024-01-30T02:14:45;16.33;;;9.77;;
82727;SDS011;72459;50.110;8.750;2024-01-30T02:17:11;20.20;;;10.23;;
82727;SDS011;72459;50.110;8.750;2024-01-30T02:19:37;15.15;;;9.02;;
82727;SDS011;72459;50.110;8.750;2024-01-30T02:22:02;15.63;;;8.68;;
82727;SDS011;72459;50.110;8.750;2024-01-30T02:24:28;14.13;;;9.00;;
82727;SDS011;72459;50.110;8.750;2024-01-30T02:26:56;16.23;;;9.27;;
82727;SDS011;72459;50.110;8.750;2024-01-30T02:29:22;15.73;;;9.35;;
82727;SDS011;72459;50.110;8.750;2024-01-30T02:31:47;17.40;;;9.18;;
82727;SDS011;72459;50.110;8.750;2024-01-30T02:34:13;16.73;;;9.20;;
82727;SDS011;72459;50.110;8.750;2024-01-30T02:36:42;14.35;;;9.07;;
82727;SDS011;72459;50.110;8.750;2024-01-30T02:39:08;15.52;;;8.50;;
82727;SDS011;72459;50.110;8.750;2024-01-30T02:41:34;18.10;;;9.95;;
82727;SDS011;72459;50.110;8.750;2024-01-30T02:44:00;14.77;;;8.65;;
82727;SDS011;72459;50.110;8.750;2024-01-30T02:46:25;13.20;;;7.63;;
82727;SDS011;72459;50.110;8.750;2024-01-30T02:48:50;11.20;;;7.77;;
82727;SDS011;72459;50.110;8.750;2024-01-30T02:51:16;14.00;;;7.78;;
82727;SDS011;72459;50.110;8.750;2024-01-30T02:53:41;10.85;;;6.80;;
82727;SDS011;72459;50.110;8.750;2024-01-30T02:56:07;10.17;;;6.97;;
82727;SDS011;72459;50.110;8.750;2024-01-30T02:58:35;13.13;;;7.80;;
82727;SDS011;72459;50.110;8.750;2024-01-30T03:01:01;13.30;;;8.10;;
82727;SDS011;72459;50.110;8.750;2024-01-30T03:03:26;12.77;;;8.15;;
82727;SDS011;72459;50.110;8.750;2024-01-30T03:05:52;11.95;;;7.45;;
82727;SDS011;72459;50.110;8.750;2024-01-30T03:08:17;12.47;;;7.70;;
82727;SDS011;72459;50.110;8.750;2024-01-30T03:10:42;9.73;;;7.87;;
82727;SDS011;72459;50.110;8.750;2024-01-30T03:13:08;12.38;;;7.40;;
82727;SDS011;72459;50.110;8.750;2024-01-30T03:15:33;15.47;;;8.27;;
82727;SDS011;72459;50.110;8.750;2024-01-30T03:17:58;14.93;;;7.87;;
82727;SDS011;72459;50.110;8.750;2024-01-30T03:20:24;11.40;;;7.50;;
82727;SDS011;72459;50.110;8.750;2024-01-30T03:22:49;12.40;;;7.40;;
82727;SDS011;72459;50.110;8.750;2024-01-30T03:25:14;12.53;;;7.40;;
82727;SDS011;72459;50.110;8.750;2024-01-30T03:27:40;13.32;;;8.00;;
82727;SDS011;72459;50.110;8.750;2024-01-30T03:30:06;11.03;;;7.77;;
82727;SDS011;72459;50.110;8.750;2024-01-30T03:32:31;10.85;;;7.28;;
82727;SDS011;72459;50.110;8.750;2024-01-30T03:34:57;11.03;;;7.53;;
82727;SDS011;72459;50.110;8.750;2024-01-30T03:37:23;11.63;;;7.20;;
82727;SDS011;72459;50.110;8.750;2024-01-30T03:39:49;12.52;;;7.07;;
82727;SDS011;72459;50.110;8.750;2024-01-30T03:42:14;11.25;;;7.47;;
82727;SDS011;72459;50.110;8.750;2024-01-30T03:44:39;11.35;;;7.40;;
82727;SDS011;72459;50.110;8.750;2024-01-30T03:47:05;11.37;;;6.97;;
82727;SDS011;72459;50.110;8.750;2024-01-30T03:49:30;12.65;;;7.82;;
82727;SDS011;72459;50.110;8.750;2024-01-30T03:51:55;12.30;;;7.05;;
82727;SDS011;72459;50.110;8.750;2024-01-30T03:54:21;13.80;;;8.27;;
82727;SDS011;72459;50.110;8.750;2024-01-30T03:56:46;13.85;;;8.65;;
82727;SDS011;72459;50.110;8.750;2024-01-30T03:59:12;13.63;;;8.63;;
82727;SDS011;72459;50.110;8.750;2024-01-30T04:01:37;13.80;;;8.93;;
82727;SDS011;72459;50.110;8.750;2024-01-30T04:04:02;15.27;;;8.80;;
82727;SDS011;72459;50.110;8.750;2024-01-30T04:06:28;14.98;;;8.68;;
82727;SDS011;72459;50.110;8.750;2024-01-30T04:08:53;15.13;;;9.80;;
82727;SDS011;72459;50.110;8.750;2024-01-30T04:11:19;16.23;;;9.60;;
82727;SDS011;72459;50.110;8.750;2024-01-30T04:13:47;12.45;;;8.07;;
82727;SDS011;72459;50.110;8.750;2024-01-30T04:16:20;12.90;;;8.57;;
82727;SDS011;72459;50.110;8.750;2024-01-30T04:18:46;14.95;;;8.85;;
82727;SDS011;72459;50.110;8.750;2024-01-30T04:21:12;15.30;;;9.43;;
82727;SDS011;72459;50.110;8.750;2024-01-30T04:23:37;16.27;;;8.75;;
82727;SDS011;72459;50.110;8.750;2024-01-30T04:26:03;13.70;;;9.35;;
82727;SDS011;72459;50.110;8.750;2024-01-30T04:28:28;14.05;;;8.10;;
82727;SDS011;72459;50.110;8.750;2024-01-30T04:30:53;13.88;;;8.75;;
82727;SDS011;72459;50.110;8.750;2024-01-30T04:33:19;16.60;;;8.48;;
82727;SDS011;72459;50.110;8.750;2024-01-30T04:35:45;16.52;;;9.02;;
82727;SDS011;72459;50.110;8.750;2024-01-30T04:38:11;13.63;;;8.50;;
82727;SDS011;72459;50.110;8.750;2024-01-30T04:40:36;14.27;;;9.18;;
82727;SDS011;72459;50.110;8.750;2024-01-30T04:43:01;13.50;;;8.13;;
82727;SDS011;72459;50.110;8.750;2024-01-30T04:45:27;13.35;;;8.35;;
82727;SDS011;72459;50.110;8.750;2024-01-30T04:47:52;11.13;;;7.33;;
82727;SDS011;72459;50.110;8.750;2024-01-30T04:50:17;14.10;;;8.65;;
82727;SDS011;72459;50.110;8.750;2024-01-30T04:52:44;14.52;;;7.97;;
82727;SDS011;72459;50.110;8.750;2024-01-30T04:55:09;11.17;;;7.67;;
82727;SDS011;72459;50.110;8.750;2024-01-30T04:57:34;11.40;;;6.55;;
82727;SDS011;72459;50.110;8.750;2024-01-30T05:00:00;11.52;;;7.45;;
82727;SDS011;72459;50.110;8.750;2024-01-30T05:02:25;11.02;;;7.47;;
82727;SDS011;72459;50.110;8.750;2024-01-30T05:04:51;12.38;;;7.75;;
82727;SDS011;72459;50.110;8.750;2024-01-30T05:07:16;11.73;;;7.30;;
82727;SDS011;72459;50.110;8.750;2024-01-30T05:09:42;11.93;;;6.00;;
82727;SDS011;72459;50.110;8.750;2024-01-30T05:12:07;11.67;;;6.93;;
82727;SDS011;72459;50.110;8.750;2024-01-30T05:14:33;13.13;;;6.93;;
82727;SDS011;72459;50.110;8.750;2024-01-30T05:16:58;13.30;;;8.83;;
82727;SDS011;72459;50.110;8.750;2024-01-30T05:19:23;14.35;;;7.50;;
82727;SDS011;72459;50.110;8.750;2024-01-30T05:21:49;13.82;;;8.55;;
82727;SDS011;72459;50.110;8.750;2024-01-30T05:24:15;14.15;;;8.13;;
82727;SDS011;72459;50.110;8.750;2024-01-30T05:26:40;14.50;;;8.38;;
82727;SDS011;72459;50.110;8.750;2024-01-30T05:29:06;11.38;;;7.85;;
82727;SDS011;72459;50.110;8.750;2024-01-30T05:31:32;14.40;;;8.43;;
82727;SDS011;72459;50.110;8.750;2024-01-30T05:33:58;16.83;;;9.20;;
82727;SDS011;72459;50.110;8.750;2024-01-30T05:36:24;12.43;;;8.13;;
82727;SDS011;72459;50.110;8.750;2024-01-30T05:38:49;12.93;;;8.00;;
82727;SDS011;72459;50.110;8.750;2024-01-30T05:41:14;12.75;;;8.73;;
82727;SDS011;72459;50.110;8.750;2024-01-30T05:43:39;14.53;;;8.17;;
82727;SDS011;72459;50.110;8.750;2024-01-30T05:46:06;11.70;;;8.60;;
82727;SDS011;72459;50.110;8.750;2024-01-30T05:48:31;15.18;;;9.20;;
82727;SDS011;72459;50.110;8.750;2024-01-30T05:50:56;14.23;;;8.20;;
82727;SDS011;72459;50.110;8.750;2024-01-30T05:53:22;16.45;;;8.60;;
82727;SDS011;72459;50.110;8.750;2024-01-30T05:55:47;12.97;;;8.73;;
82727;SDS011;72459;50.110;8.750;2024-01-30T05:58:13;12.37;;;8.43;;
82727;SDS011;72459;50.110;8.750;2024-01-30T06:00:38;12.68;;;8.43;;
82727;SDS011;72459;50.110;8.750;2024-01-30T06:03:03;13.13;;;8.57;;
82727;SDS011;72459;50.110;8.750;2024-01-30T06:05:29;17.25;;;9.25;;
82727;SDS011;72459;50.110;8.750;2024-01-30T06:07:55;12.63;;;8.47;;
82727;SDS011;72459;50.110;8.750;2024-01-30T06:10:20;14.35;;;8.85;;
82727;SDS011;72459;50.110;8.750;2024-01-30T06:12:46;14.73;;;8.48;;
82727;SDS011;72459;50.110;8.750;2024-01-30T06:15:11;15.10;;;8.67;;
82727;SDS011;72459;50.110;8.750;2024-01-30T06:17:37;13.05;;;8.60;;
82727;SDS011;72459;50.110;8.750;2024-01-30T06:20:03;13.07;;;8.25;;
82727;SDS011;72459;50.110;8.750;2024-01-30T06:22:29;14.32;;;8.43;;
82727;SDS011;72459;50.110;8.750;2024-01-30T06:24:54;14.73;;;8.07;;
82727;SDS011;72459;50.110;8.750;2024-01-30T06:27:19;11.90;;;8.37;;
82727;SDS011;72459;50.110;8.750;2024-01-30T06:29:45;13.53;;;7.53;;
82727;SDS011;72459;50.110;8.750;2024-01-30T06:32:11;14.88;;;8.77;;
82727;SDS011;72459;50.110;8.750;2024-01-30T06:34:36;14.50;;;8.38;;
82727;SDS011;72459;50.110;8.750;2024-01-30T06:37:03;14.27;;;7.97;;
82727;SDS011;72459;50.110;8.750;2024-01-30T06:39:28;14.13;;;8.83;;
82727;SDS011;72459;50.110;8.750;2024-01-30T06:41:54;16.35;;;9.15;;
82727;SDS011;72459;50.110;8.750;2024-01-30T06:44:19;13.98;;;8.82;;
82727;SDS011;72459;50.110;8.750;2024-01-30T06:46:44;18.23;;;9.63;;
82727;SDS011;72459;50.110;8.750;2024-01-30T06:49:10;14.50;;;8.77;;
82727;SDS011;72459;50.110;8.750;2024-01-30T06:51:36;15.05;;;8.98;;
82727;SDS011;72459;50.110;8.750;2024-01-30T06:54:01;14.97;;;8.47;;
82727;SDS011;72459;50.110;8.750;2024-01-30T06:56:27;13.00;;;8.73;;
82727;SDS011;72459;50.110;8.750;2024-01-30T06:58:53;15.65;;;8.23;;
82727;SDS011;72459;50.110;8.750;2024-01-30T07:01:18;12.67;;;8.00;;
82727;SDS011;72459;50.110;8.750;2024-01-30T07:03:43;14.82;;;8.18;;
82727;SDS011;72459;50.110;8.750;2024-01-30T07:06:09;14.20;;;7.07;;
82727;SDS011;72459;50.110;8.750;2024-01-30T07:08:38;15.05;;;8.75;;
82727;SDS011;72459;50.110;8.750;2024-01-30T07:11:04;12.85;;;7.82;;
82727;SDS011;72459;50.110;8.750;2024-01-30T07:13:31;12.38;;;7.40;;
82727;SDS011;72459;50.110;8.750;2024-01-30T07:15:56;13.35;;;8.13;;
82727;SDS011;72459;50.110;8.750;2024-01-30T07:18:22;13.77;;;8.07;;
82727;SDS011;72459;50.110;8.750;2024-01-30T07:20:47;13.18;;;7.80;;
82727;SDS011;72459;50.110;8.750;2024-01-30T07:23:14;15.43;;;9.15;;
82727;SDS011;72459;50.110;8.750;2024-01-30T07:25:41;14.05;;;8.95;;
82727;SDS011;72459;50.110;8.750;2024-01-30T07:28:07;13.82;;;9.50;;
82727;SDS011;72459;50.110;8.750;2024-01-30T07:30:37;16.77;;;9.48;;
82727;SDS011;72459;50.110;8.750;2024-01-30T07:33:03;15.70;;;9.30;;
82727;SDS011;72459;50.110;8.750;2024-01-30T07:35:28;14.52;;;8.02;;
82727;SDS011;72459;50.110;8.750;2024-01-30T07:37:53;14.00;;;8.85;;
82727;SDS011;72459;50.110;8.750;2024-01-30T07:40:19;12.82;;;8.68;;
82727;SDS011;72459;50.110;8.750;2024-01-30T07:42:44;10.93;;;7.87;;
82727;SDS011;72459;50.110;8.750;2024-01-30T07:45:10;14.30;;;8.38;;
82727;SDS011;72459;50.110;8.750;2024-01-30T07:47:35;13.20;;;8.50;;
82727;SDS011;72459;50.110;8.750;2024-01-30T07:50:00;16.30;;;8.82;;
82727;SDS011;72459;50.110;8.750;2024-01-30T07:52:26;11.88;;;8.40;;
82727;SDS011;72459;50.110;8.750;2024-01-30T07:54:52;13.90;;;8.77;;
82727;SDS011;72459;50.110;8.750;2024-01-30T07:57:17;14.13;;;8.68;;
82727;SDS011;72459;50.110;8.750;2024-01-30T07:59:45;11.85;;;8.63;;
82727;SDS011;72459;50.110;8.750;2024-01-30T08:02:11;14.45;;;8.90;;
82727;SDS011;72459;50.110;8.750;2024-01-30T08:04:37;15.63;;;8.65;;
82727;SDS011;72459;50.110;8.750;2024-01-30T08:07:03;14.98;;;8.50;;
82727;SDS011;72459;50.110;8.750;2024-01-30T08:09:28;15.50;;;8.98;;
82727;SDS011;72459;50.110;8.750;2024-01-30T08:11:54;14.43;;;8.43;;
82727;SDS011;72459;50.110;8.750;2024-01-30T08:14:19;15.87;;;8.20;;
82727;SDS011;72459;50.110;8.750;2024-01-30T08:16:44;14.50;;;9.07;;
82727;SDS011;72459;50.110;8.750;2024-01-30T08:19:10;15.48;;;9.13;;
82727;SDS011;72459;50.110;8.750;2024-01-30T08:21:35;14.60;;;8.67;;
82727;SDS011;72459;50.110;8.750;2024-01-30T08:24:02;16.48;;;9.00;;
82727;SDS011;72459;50.110;8.750;2024-01-30T08:26:31;12.88;;;8.98;;
82727;SDS011;72459;50.110;8.750;2024-01-30T08:28:57;14.73;;;8.85;;
82727;SDS011;72459;50.110;8.750;2024-01-30T08:31:22;13.93;;;8.85;;
82727;SDS011;72459;50.110;8.750;2024-01-30T08:33:48;14.02;;;8.73;;
82727;SDS011;72459;50.110;8.750;2024-01-30T08:36:13;12.60;;;8.02;;
82727;SDS011;72459;50.110;8.750;2024-01-30T08:38:39;16.75;;;9.82;;
82727;SDS011;72459;50.110;8.750;2024-01-30T08:41:04;15.60;;;8.68;;
82727;SDS011;72459;50.110;8.750;2024-01-30T08:43:30;12.15;;;9.00;;
82727;SDS011;72459;50.110;8.750;2024-01-30T08:45:58;13.75;;;9.43;;
82727;SDS011;72459;50.110;8.750;2024-01-30T08:48:24;15.50;;;9.40;;
82727;SDS011;72459;50.110;8.750;2024-01-30T08:50:50;18.30;;;9.65;;
82727;SDS011;72459;50.110;8.750;2024-01-30T08:53:15;16.42;;;10.32;;
82727;SDS011;72459;50.110;8.750;2024-01-30T08:55:41;19.27;;;10.02;;
82727;SDS011;72459;50.110;8.750;2024-01-30T08:58:06;12.80;;;9.67;;
82727;SDS011;72459;50.110;8.750;2024-01-30T09:00:31;13.27;;;9.95;;
82727;SDS011;72459;50.110;8.750;2024-01-30T09:02:57;15.35;;;9.45;;
82727;SDS011;72459;50.110;8.750;2024-01-30T09:05:23;14.90;;;10.15;;
82727;SDS011;72459;50.110;8.750;2024-01-30T09:07:48;16.40;;;9.67;;
82727;SDS011;72459;50.110;8.750;2024-01-30T09:10:13;15.40;;;10.18;;
82727;SDS011;72459;50.110;8.750;2024-01-30T09:12:39;15.87;;;9.60;;
82727;SDS011;72459;50.110;8.750;2024-01-30T09:15:04;12.73;;;8.95;;
82727;SDS011;72459;50.110;8.750;2024-01-30T09:17:30;14.23;;;9.00;;
82727;SDS011;72459;50.110;8.750;2024-01-30T09:19:56;17.05;;;9.50;;
82727;SDS011;72459;50.110;8.750;2024-01-30T09:22:21;14.00;;;9.67;;
82727;SDS011;72459;50.110;8.750;2024-01-30T09:24:46;16.77;;;10.27;;
82727;SDS011;72459;50.110;8.750;2024-01-30T09:27:12;13.87;;;8.83;;
82727;SDS011;72459;50.110;8.750;2024-01-30T09:29:37;14.90;;;10.52;;
82727;SDS011;72459;50.110;8.750;2024-01-30T09:32:03;16.33;;;8.75;;
82727;SDS011;72459;50.110;8.750;2024-01-30T09:34:29;15.80;;;9.90;;
82727;SDS011;72459;50.110;8.750;2024-01-30T09:36:54;17.53;;;10.87;;
82727;SDS011;72459;50.110;8.750;2024-01-30T09:39:19;15.13;;;11.03;;
82727;SDS011;72459;50.110;8.750;2024-01-30T09:41:48;19.95;;;12.00;;
82727;SDS011;72459;50.110;8.750;2024-01-30T09:44:16;14.82;;;10.75;;
82727;SDS011;72459;50.110;8.750;2024-01-30T09:46:44;17.58;;;11.05;;
82727;SDS011;72459;50.110;8.750;2024-01-30T09:49:13;19.13;;;11.07;;
82727;SDS011;72459;50.110;8.750;2024-01-30T09:51:39;16.08;;;10.30;;
82727;SDS011;72459;50.110;8.750;2024-01-30T09:54:05;14.68;;;10.50;;
82727;SDS011;72459;50.110;8.750;2024-01-30T09:56:33;15.02;;;10.40;;
82727;SDS011;72459;50.110;8.750;2024-01-30T09:58:58;15.70;;;10.40;;
82727;SDS011;72459;50.110;8.750;2024-01-30T10:01:24;18.63;;;11.10;;
82727;SDS011;72459;50.110;8.750;2024-01-30T10:03:50;16.77;;;10.70;;
82727;SDS011;72459;50.110;8.750;2024-01-30T10:06:19;16.35;;;10.40;;
82727;SDS011;72459;50.110;8.750;2024-01-30T10:08:46;15.20;;;10.57;;
82727;SDS011;72459;50.110;8.750;2024-01-30T10:11:11;14.43;;;9.73;;
82727;SDS011;72459;50.110;8.750;2024-01-30T10:13:38;16.85;;;9.43;;
82727;SDS011;72459;50.110;8.750;2024-01-30T10:16:04;17.30;;;10.52;;
82727;SDS011;72459;50.110;8.750;2024-01-30T10:18:31;14.63;;;10.02;;
82727;SDS011;72459;50.110;8.750;2024-01-30T10:20:57;16.25;;;10.73;;
82727;SDS011;72459;50.110;8.750;2024-01-30T10:23:23;15.80;;;10.20;;
82727;SDS011;72459;50.110;8.750;2024-01-30T10:25:50;14.38;;;10.50;;
82727;SDS011;72459;50.110;8.750;2024-01-30T10:28:16;20.00;;;11.13;;
82727;SDS011;72459;50.110;8.750;2024-01-30T10:30:42;16.90;;;10.27;;
82727;SDS011;72459;50.110;8.750;2024-01-30T10:33:07;17.23;;;10.35;;
82727;SDS011;72459;50.110;8.750;2024-01-30T10:35:33;15.07;;;10.85;;
82727;SDS011;72459;50.110;8.750;2024-01-30T10:37:58;17.80;;;11.48;;
82727;SDS011;72459;50.110;8.750;2024-01-30T10:40:26;15.07;;;10.02;;
82727;SDS011;72459;50.110;8.750;2024-01-30T10:42:53;16.13;;;9.50;;
82727;SDS011;72459;50.110;8.750;2024-01-30T10:45:20;14.23;;;9.65;;
82727;SDS011;72459;50.110;8.750;2024-01-30T10:47:50;15.57;;;9.43;;
82727;SDS011;72459;50.110;8.750;2024-01-30T10:50:19;14.95;;;9.50;;
82727;SDS011;72459;50.110;8.750;2024-01-30T10:52:49;13.98;;;9.82;;
82727;SDS011;72459;50.110;8.750;2024-01-30T10:55:15;16.67;;;8.98;;
82727;SDS011;72459;50.110;8.750;2024-01-30T10:57:41;16.85;;;10.00;;
82727;SDS011;72459;50.110;8.750;2024-01-30T11:00:07;17.15;;;10.15;;
82727;SDS011;72459;50.110;8.750;2024-01-30T11:02:38;15.55;;;10.93;;
82727;SDS011;72459;50.110;8.750;2024-01-30T11:05:05;16.58;;;10.10;;
82727;SDS011;72459;50.110;8.750;2024-01-30T11:07:31;15.00;;;9.23;;
82727;SDS011;72459;50.110;8.750;2024-01-30T11:10:03;15.40;;;9.25;;
82727;SDS011;72459;50.110;8.750;2024-01-30T11:12:38;15.30;;;10.95;;
82727;SDS011;72459;50.110;8.750;2024-01-30T11:15:13;16.20;;;10.43;;
82727;SDS011;72459;50.110;8.750;2024-01-30T11:23:10;15.40;;;9.88;;
82727;SDS011;72459;50.110;8.750;2024-01-30T11:25:38;14.93;;;10.10;;
82727;SDS011;72459;50.110;8.750;2024-01-30T11:28:03;14.02;;;10.45;;
82727;SDS011;72459;50.110;8.750;2024-01-30T11:30:29;15.05;;;9.88;;
82727;SDS011;72459;50.110;8.750;2024-01-30T11:33:00;15.25;;;10.77;;
82727;SDS011;72459;50.110;8.750;2024-01-30T11:35:33;13.38;;;10.05;;
82727;SDS011;72459;50.110;8.750;2024-01-30T11:38:00;15.77;;;10.20;;
82727;SDS011;72459;50.110;8.750;2024-01-30T11:40:27;14.60;;;9.50;;
82727;SDS011;72459;50.110;8.750;2024-01-30T11:42:54;12.85;;;9.27;;
82727;SDS011;72459;50.110;8.750;2024-01-30T11:45:20;14.25;;;9.32;;
82727;SDS011;72459;50.110;8.750;2024-01-30T11:47:46;11.73;;;8.73;;
82727;SDS011;72459;50.110;8.750;2024-01-30T11:50:11;15.27;;;8.10;;
82727;SDS011;72459;50.110;8.750;2024-01-30T11:52:37;13.55;;;8.93;;
82727;SDS011;72459;50.110;8.750;2024-01-30T11:55:03;9.90;;;8.05;;
82727;SDS011;72459;50.110;8.750;2024-01-30T11:57:29;12.65;;;8.15;;
82727;SDS011;72459;50.110;8.750;2024-01-30T11:59:54;10.55;;;8.35;;
82727;SDS011;72459;50.110;8.750;2024-01-30T12:02:19;12.00;;;8.35;;
82727;SDS011;72459;50.110;8.750;2024-01-30T12:04:45;13.37;;;8.40;;
82727;SDS011;72459;50.110;8.750;2024-01-30T12:07:11;12.60;;;8.80;;
82727;SDS011;72459;50.110;8.750;2024-01-30T12:09:37;11.88;;;7.93;;
82727;SDS011;72459;50.110;8.750;2024-01-30T12:12:03;12.00;;;8.00;;
82727;SDS011;72459;50.110;8.750;2024-01-30T12:14:29;11.23;;;6.95;;
82727;SDS011;72459;50.110;8.750;2024-01-30T12:16:55;13.05;;;8.50;;
82727;SDS011;72459;50.110;8.750;2024-01-30T12:19:21;14.67;;;8.00;;
82727;SDS011;72459;50.110;8.750;2024-01-30T12:21:53;14.35;;;8.43;;
82727;SDS011;72459;50.110;8.750;2024-01-30T12:24:23;12.45;;;8.05;;
82727;SDS011;72459;50.110;8.750;2024-01-30T12:26:50;14.20;;;8.57;;
82727;SDS011;72459;50.110;8.750;2024-01-30T12:29:15;11.90;;;8.38;;
82727;SDS011;72459;50.110;8.750;2024-01-30T12:31:41;11.65;;;8.45;;
82727;SDS011;72459;50.110;8.750;2024-01-30T12:34:07;13.70;;;8.75;;
82727;SDS011;72459;50.110;8.750;2024-01-30T12:36:33;11.18;;;8.43;;
82727;SDS011;72459;50.110;8.750;2024-01-30T12:38:59;12.38;;;8.18;;
82727;SDS011;72459;50.110;8.750;2024-01-30T12:41:25;13.75;;;8.18;;
82727;SDS011;72459;50.110;8.750;2024-01-30T12:43:54;11.57;;;7.68;;
82727;SDS011;72459;50.110;8.750;2024-01-30T12:46:21;12.77;;;8.88;;
82727;SDS011;72459;50.110;8.750;2024-01-30T12:48:53;12.43;;;8.30;;
82727;SDS011;72459;50.110;8.750;2024-01-30T12:51:19;11.82;;;8.20;;
82727;SDS011;72459;50.110;8.750;2024-01-30T12:53:44;15.30;;;8.05;;
82727;SDS011;72459;50.110;8.750;2024-01-30T12:56:11;11.70;;;8.57;;
82727;SDS011;72459;50.110;8.750;2024-01-30T12:58:37;11.95;;;8.07;;
82727;SDS011;72459;50.110;8.750;2024-01-30T13:01:02;12.73;;;8.52;;
82727;SDS011;72459;50.110;8.750;2024-01-30T13:03:28;11.55;;;8.68;;
82727;SDS011;72459;50.110;8.750;2024-01-30T13:05:53;13.40;;;8.98;;
82727;SDS011;72459;50.110;8.750;2024-01-30T13:08:20;12.45;;;7.60;;
82727;SDS011;72459;50.110;8.750;2024-01-30T13:10:45;11.25;;;8.77;;
82727;SDS011;72459;50.110;8.750;2024-01-30T13:13:10;13.32;;;9.02;;
82727;SDS011;72459;50.110;8.750;2024-01-30T13:15:36;11.73;;;9.05;;
82727;SDS011;72459;50.110;8.750;2024-01-30T13:18:01;15.50;;;8.87;;
82727;SDS011;72459;50.110;8.750;2024-01-30T13:20:27;14.27;;;8.85;;
82727;SDS011;72459;50.110;8.750;2024-01-30T13:22:53;12.88;;;8.63;;
82727;SDS011;72459;50.110;8.750;2024-01-30T13:25:18;13.52;;;8.65;;
82727;SDS011;72459;50.110;8.750;2024-01-30T13:27:44;13.15;;;8.05;;
82727;SDS011;72459;50.110;8.750;2024-01-30T13:30:09;11.63;;;7.78;;
82727;SDS011;72459;50.110;8.750;2024-01-30T13:32:35;11.95;;;8.35;;
82727;SDS011;72459;50.110;8.750;2024-01-30T13:35:01;13.68;;;8.13;;
82727;SDS011;72459;50.110;8.750;2024-01-30T13:37:26;12.88;;;8.30;;
82727;SDS011;72459;50.110;8.750;2024-01-30T13:39:52;17.05;;;8.30;;
82727;SDS011;72459;50.110;8.750;2024-01-30T13:42:17;10.83;;;7.50;;
82727;SDS011;72459;50.110;8.750;2024-01-30T13:44:42;13.13;;;7.13;;
82727;SDS011;72459;50.110;8.750;2024-01-30T13:47:09;15.27;;;8.52;;
82727;SDS011;72459;50.110;8.750;2024-01-30T13:49:34;11.10;;;7.88;;
82727;SDS011;72459;50.110;8.750;2024-01-30T13:51:59;12.73;;;8.88;;
82727;SDS011;72459;50.110;8.750;2024-01-30T13:54:25;12.25;;;6.88;;
82727;SDS011;72459;50.110;8.750;2024-01-30T13:56:51;13.27;;;8.57;;
82727;SDS011;72459;50.110;8.750;2024-01-30T13:59:16;12.35;;;8.05;;
82727;SDS011;72459;50.110;8.750;2024-01-30T14:01:49;11.38;;;7.60;;
82727;SDS011;72459;50.110;8.750;2024-01-30T14:04:15;13.88;;;8.27;;
82727;SDS011;72459;50.110;8.750;2024-01-30T14:06:41;13.65;;;8.88;;
82727;SDS011;72459;50.110;8.750;2024-01-30T14:09:07;14.65;;;8.98;;
82727;SDS011;72459;50.110;8.750;2024-01-30T14:11:32;13.18;;;8.73;;
82727;SDS011;72459;50.110;8.750;2024-01-30T14:13:58;12.73;;;8.82;;
82727;SDS011;72459;50.110;8.750;2024-01-30T14:16:24;13.40;;;8.93;;
82727;SDS011;72459;50.110;8.750;2024-01-30T14:18:49;11.50;;;8.32;;
82727;SDS011;72459;50.110;8.750;2024-01-30T14:21:15;12.48;;;7.97;;
82727;SDS011;72459;50.110;8.750;2024-01-30T14:23:40;13.27;;;8.70;;
82727;SDS011;72459;50.110;8.750;2024-01-30T14:26:06;10.67;;;8.43;;
82727;SDS011;72459;50.110;8.750;2024-01-30T14:28:31;12.95;;;8.70;;